• Join FlightAware (Why Join?)
  • Login
  • US Flag 
01:30AM EDT


 

Airport Tracker/Info


-or-


 

Live Flight TrackerFlight Track Log ✈ N713MD ✈ 04-May-2014 ✈ KORD - KCQF

Flight Track Log - Related Links

Times and Time Zones

All times are in EDT time to prevent confusion due to time zone crossing. See the N713MD flight status page for this flight to view local times or setup timezone preferences in your user account.

Time Position Orientation Groundspeed Altitude Reporting Facility
EDT Latitude Longitude Course Direction KTS MPH feet Rate Location/Type
08:27PM 41.9167 -87.8500 180° South 195 224 4,600  Level Chicago TRACON
08:28PM 41.8225 -87.8189 166° South 259 298 5,000 540 Climbing Chicago Center
08:29PM 41.7494 -87.8025 170° South 260 299 5,900 1,500 Climbing Chicago Center
08:30PM 41.6861 -87.8017 179° South 228 262 8,200 2,220 Climbing Chicago Center
08:31PM 41.6208 -87.8006 179° South 216 249 10,500 1,800 Climbing Chicago Center
08:32PM 41.5854 -87.9062 180° South  Level Estimated
08:33PM 41.5525 -87.7792 167° South 264 304 12,000  Level Chicago Center
08:34PM 41.4972 -87.7378 151° Southeast 230 265 14,500 1,440 Climbing Chicago Center
08:35PM 41.4258 -87.7025 160° South 265 305 15,000 960 Climbing Chicago Center
08:36PM 41.3497 -87.6811 168° South 278 320 16,500 1,320 Climbing Chicago Center
08:37PM 41.2708 -87.6667 172° South 270 311 17,800 1,200 Climbing Chicago Center
08:38PM 41.2078 -87.6556 172° South 269 310 19,100 1,440 Climbing Chicago Center
08:39PM 41.1208 -87.6375 171° South 266 306 20,800 1,320 Climbing Chicago Center
08:40PM 41.0481 -87.6222 171° South 264 304 21,900 1,020 Climbing Chicago Center
08:41PM 40.9728 -87.6064 171° South 271 312 23,000 1,080 Climbing Chicago Center
08:42PM 40.8989 -87.5917 171° South 270 311 24,200 1,080 Climbing Chicago Center
08:43PM 40.8253 -87.5753 170° South 270 311 25,300 780 Climbing Chicago Center
08:44PM 40.7508 -87.5617 172° South 268 308 25,900 240 Climbing Chicago Center
08:45PM 40.6500 -87.5397 171° South 302 348 25,900  Level Chicago Center
08:46PM 40.5608 -87.5222 172° South 319 367 25,900  Level Chicago Center
08:47PM 40.4708 -87.5053 172° South 322 371 25,900  Level Chicago Center
08:48PM 40.3800 -87.4864 171° South 325 374 25,900  Level Chicago Center
08:49PM 40.2906 -87.4675 171° South 329 379 25,900  Level Chicago Center
08:50PM 40.1942 -87.4500 172° South 327 376 25,900  Level Chicago Center
08:51PM 40.1194 -87.4331 170° South 327 376 25,900  Level Indianapolis Center
08:52PM 40.0294 -87.4147 171° South 327 376 25,900  Level Indianapolis Center
08:53PM 39.9378 -87.3981 172° South 329 379 25,900  Level Indianapolis Center
08:54PM 39.8475 -87.3800 171° South 329 379 25,900  Level Indianapolis Center
08:55PM 39.7558 -87.3617 171° South 331 381 25,900  Level Indianapolis Center
08:56PM 39.6647 -87.3433 171° South 332 382 25,900  Level Indianapolis Center
08:57PM 39.5736 -87.3261 172° South 332 382 25,900  Level Indianapolis Center
08:58PM 39.4628 -87.3042 171° South 332 382 25,900  Level Indianapolis Center
08:59PM 39.3708 -87.2858 171° South 332 382 25,900  Level Indianapolis Center
09:00PM 39.2797 -87.2681 171° South 333 383 25,900  Level Indianapolis Center
09:01PM 39.1892 -87.2497 171° South 333 383 25,900  Level Indianapolis Center
09:02PM 39.1019 -87.2344 172° South 332 382 25,900  Level Indianapolis Center
09:03PM 39.0119 -87.2158 171° South 330 380 25,900  Level Indianapolis Center
09:04PM 38.9211 -87.1989 172° South 330 380 25,900  Level Indianapolis Center
09:05PM 38.8111 -87.1786 172° South 330 380 25,900  Level Indianapolis Center
09:06PM 38.7186 -87.1617 172° South 330 380 25,900  Level Indianapolis Center
09:07PM 38.6275 -87.1442 171° South 331 381 25,900  Level Indianapolis Center
09:08PM 38.5356 -87.1264 171° South 331 381 25,900  Level Indianapolis Center
09:09PM 38.4442 -87.1094 172° South 331 381 25,900  Level Indianapolis Center
09:10PM 38.3550 -87.0931 172° South 331 381 25,900  Level Indianapolis Center
09:11PM 38.2639 -87.0739 171° South 331 381 25,900  Level Indianapolis Center
09:12PM 38.1589 -87.0558 172° South 331 381 25,900  Level Indianapolis Center
09:13PM 38.0692 -87.0389 172° South 330 380 25,900  Level Indianapolis Center
09:14PM 37.9789 -87.0222 172° South 329 379 25,900  Level Indianapolis Center
09:15PM 37.8906 -87.0053 171° South 325 374 25,900  Level Indianapolis Center
09:16PM 37.8028 -86.9889 172° South 322 371 25,900  Level Indianapolis Center
09:17PM 37.7156 -86.9725 172° South 319 367 25,900  Level Indianapolis Center
09:18PM 37.6292 -86.9567 172° South 317 365 25,900  Level Indianapolis Center
09:20PM 37.5267 -86.9372 171° South 317 365 25,900  Level Indianapolis Center
09:21PM 37.4394 -86.9219 172° South 316 364 25,900  Level Indianapolis Center
09:22PM 37.3522 -86.9072 172° South 316 364 25,900  Level Memphis Center
09:23PM 37.2650 -86.8903 171° South 315 362 25,900  Level Memphis Center
09:24PM 37.1781 -86.8747 172° South 315 362 25,900  Level Memphis Center
09:25PM 37.0917 -86.8589 172° South 311 358 25,900  Level Memphis Center
09:26PM 37.0056 -86.8431 172° South 311 358 25,900  Level Memphis Center
09:27PM 36.9172 -86.8275 172° South 312 359 25,900  Level Memphis Center
09:28PM 36.8300 -86.8106 171° South 313 360 25,900  Level Memphis Center
09:29PM 36.7433 -86.7939 171° South 313 360 25,900  Level Memphis Center
09:30PM 36.6556 -86.7781 172° South 313 360 25,900  Level Memphis Center
09:31PM 36.5681 -86.7622 172° South 313 360 25,900  Level Memphis Center
09:32PM 36.4806 -86.7467 172° South 313 360 25,900  Level Memphis Center
09:34PM 36.3025 -86.7150 172° South 313 360 25,900  Level Memphis Center
09:35PM 36.2142 -86.7003 172° South 313 360 25,900  Level Memphis Center
09:36PM 36.1264 -86.6850 172° South 313 360 25,900  Level Memphis Center
09:37PM 36.0394 -86.6942 185° South 309 356 25,900  Level Memphis Center
09:38PM 35.9539 -86.7028 185° South 309 356 25,900  Level Memphis Center
09:39PM 35.8675 -86.7097 184° South 308 354 25,900  Level Memphis Center
09:40PM 35.7814 -86.7186 185° South 308 354 25,900  Level Memphis Center
09:41PM 35.6817 -86.7269 184° South 308 354 25,900  Level Memphis Center
09:42PM 35.5969 -86.7361 185° South 307 353 25,900  Level Memphis Center
09:43PM 35.5122 -86.7428 184° South 304 350 25,900  Level Memphis Center
09:44PM 35.4278 -86.7511 185° South 304 350 25,900  Level Memphis Center
09:45PM 35.3428 -86.7581 184° South 304 350 25,900  Level Memphis Center
09:46PM 35.2575 -86.7653 184° South 304 350 25,900  Level Memphis Center
09:47PM 35.1728 -86.7725 184° South 304 350 25,900  Level Memphis Center
09:48PM 35.0858 -86.7800 184° South 303 349 25,900  Level Memphis Center
09:49PM 35.0031 -86.7864 184° South 302 348 25,900  Level Memphis Center
09:50PM 34.9203 -86.7939 184° South 301 346 25,900  Level Memphis Center
09:51PM 34.8381 -86.8011 184° South 300 345 25,900  Level Memphis Center
09:52PM 34.7553 -86.8081 184° South 299 344 25,900  Level Memphis Center
09:53PM 34.6722 -86.8150 184° South 299 344 25,900  Level Memphis Center
09:54PM 34.5892 -86.8219 184° South 299 344 25,900  Level Memphis Center
09:56PM 34.4514 -86.8350 184° South 310 357 25,900  Level Atlanta Center
09:57PM 34.3678 -86.8397 183° South 310 357 25,900  Level Atlanta Center
09:58PM 34.2839 -86.8469 184° South 310 357 25,900  Level Atlanta Center
09:59PM 34.2025 -86.8544 184° South 310 357 25,900  Level Atlanta Center
10:00PM 34.1189 -86.8617 184° South 310 357 25,900  Level Atlanta Center
10:01PM 34.0353 -86.8689 184° South 310 357 25,900  Level Atlanta Center
10:02PM 33.9536 -86.8761 184° South 310 357 25,900  Level Atlanta Center
10:03PM 33.8742 -86.8836 184° South 305 351 25,900  Level Atlanta Center
10:04PM 33.7925 -86.8908 184° South 300 345 25,900  Level Atlanta Center
10:05PM 33.7111 -86.8956 183° South 300 345 26,000  Climbing Atlanta Center
10:06PM 33.6314 -86.9131 190° South 295 339 26,000  Level Atlanta Center
10:07PM 33.5536 -86.9353 193° South 290 334 26,000  Level Atlanta Center
10:08PM 33.4758 -86.9600 195° South 290 334 26,000  Level Atlanta Center
10:09PM 33.3978 -86.9872 196° South 290 334 26,000  Level Atlanta Center
10:10PM 33.3200 -87.0119 195° South 295 339 26,000  Level Atlanta Center
10:11PM 33.2486 -87.0344 195° South 295 339 26,000  Level Atlanta Center
10:12PM 33.1728 -87.0567 194° South 295 339 26,000  Level Atlanta Center
10:13PM 33.0886 -87.0833 195° South 295 339 26,000  Level Atlanta Center
10:14PM 33.0150 -87.1081 196° South 295 339 26,000  Level Atlanta Center
10:15PM 32.9414 -87.1278 193° South 295 339 26,000  Level Atlanta Center
10:16PM 32.8636 -87.1522 195° South 295 339 26,000  Level Atlanta Center
10:17PM 32.7858 -87.1792 196° South 290 334 26,000  Level Atlanta Center
10:18PM 32.7100 -87.2011 194° South 285 328 26,000  Level Atlanta Center
10:19PM 32.6344 -87.2231 194° South 285 328 26,000  Level Atlanta Center
10:20PM 32.5564 -87.2475 195° South 285 328 26,000  Level Atlanta Center
10:21PM 32.4786 -87.2717 195° South 285 328 26,000  Level Atlanta Center
10:22PM 32.4031 -87.2936 194° South 285 328 26,000 -660 Level Atlanta Center
10:24PM 32.2403 -87.3436 195° South 307 353 24,100 -1,200 Descending Houston Center
10:25PM 32.1547 -87.3700 195° South 314 361 22,600 -1,320 Descending Houston Center
10:26PM 32.0706 -87.3953 194° South 313 360 21,500 -960 Descending Houston Center
10:27PM 31.9903 -87.4197 194° South 302 348 20,700 -840 Descending Houston Center
10:28PM 31.9100 -87.4447 195° South 299 344 19,900 -840 Descending Houston Center
10:29PM 31.8297 -87.4689 194° South 299 344 19,000 -900 Descending Houston Center
10:30PM 31.7506 -87.4928 194° South 297 342 18,100 -840 Descending Houston Center
10:31PM 31.6736 -87.5172 195° South 289 333 17,400 -840 Descending Houston Center
10:32PM 31.5947 -87.5400 194° South 289 333 16,500 -1,020 Descending Houston Center
10:33PM 31.5008 -87.5683 194° South 289 333 15,400 -960 Descending Houston Center
10:34PM 31.4219 -87.5914 194° South 289 333 14,600 -840 Descending Houston Center
10:35PM 31.3428 -87.6161 195° South 290 334 13,700 -900 Descending Houston Center
10:36PM 31.2633 -87.6406 195° South 292 336 12,800 -840 Descending Houston Center
10:37PM 31.1844 -87.6639 194° South 292 336 12,000 -840 Descending Houston Center
10:38PM 31.1067 -87.6878 195° South 290 334 11,100 -900 Descending Houston Center
10:39PM 31.0311 -87.7111 195° South 282 325 10,200 -840 Descending Houston Center
10:40PM 30.9606 -87.7328 195° South 268 308 9,500 -660 Descending Houston Center
10:41PM 30.9039 -87.7864 219° Southwest 261 300 8,900 -780 Descending Houston Center
10:42PM 30.8394 -87.8092 197° South 247 284 8,000 -1,260 Descending Houston Center
10:43PM 30.7736 -87.8156 185° South 220 253 6,400 -1,560 Descending Houston Center
10:44PM 30.7225 -87.8275 191° South 210 242 4,900 -1,500 Descending Houston Center
10:46PM 30.6031 -87.8221 199° South  Level FlightAware Approximate
10:53PM 30.4605 -87.8770 190° South  Level Estimated
10:54PM 30.4605 -87.8770 140° Southeast  Level Estimated
10:55PM 30.4605 -87.8770 190° South  Level Estimated